sensor_id;sensor_type;location;lat;lon;timestamp;P1;durP1;ratioP1;P2;durP2;ratioP2
68870;SDS011;55906;52.278;6.808;2023-07-09T00:00:12;8.27;;;5.10;;
68870;SDS011;55906;52.278;6.808;2023-07-09T00:02:41;8.45;;;6.15;;
68870;SDS011;55906;52.278;6.808;2023-07-09T00:05:11;8.52;;;5.70;;
68870;SDS011;55906;52.278;6.808;2023-07-09T00:07:39;8.85;;;5.50;;
68870;SDS011;55906;52.278;6.808;2023-07-09T00:10:12;7.68;;;5.10;;
68870;SDS011;55906;52.278;6.808;2023-07-09T00:12:41;8.35;;;5.18;;
68870;SDS011;55906;52.278;6.808;2023-07-09T00:15:08;7.10;;;5.10;;
68870;SDS011;55906;52.278;6.808;2023-07-09T00:17:37;7.00;;;4.70;;
68870;SDS011;55906;52.278;6.808;2023-07-09T00:20:05;7.63;;;5.00;;
68870;SDS011;55906;52.278;6.808;2023-07-09T00:22:39;7.20;;;5.32;;
68870;SDS011;55906;52.278;6.808;2023-07-09T00:25:07;6.88;;;4.80;;
68870;SDS011;55906;52.278;6.808;2023-07-09T00:27:39;7.50;;;4.40;;
68870;SDS011;55906;52.278;6.808;2023-07-09T00:30:12;6.78;;;4.82;;
68870;SDS011;55906;52.278;6.808;2023-07-09T00:32:42;8.38;;;4.53;;
68870;SDS011;55906;52.278;6.808;2023-07-09T00:35:09;7.05;;;4.43;;
68870;SDS011;55906;52.278;6.808;2023-07-09T00:37:38;6.88;;;4.78;;
68870;SDS011;55906;52.278;6.808;2023-07-09T00:40:08;6.90;;;4.50;;
68870;SDS011;55906;52.278;6.808;2023-07-09T00:42:42;6.07;;;3.85;;
68870;SDS011;55906;52.278;6.808;2023-07-09T00:47:45;6.82;;;3.80;;
68870;SDS011;55906;52.278;6.808;2023-07-09T00:50:20;6.13;;;4.22;;
68870;SDS011;55906;52.278;6.808;2023-07-09T00:52:55;6.63;;;4.28;;
68870;SDS011;55906;52.278;6.808;2023-07-09T00:55:25;7.05;;;4.50;;
68870;SDS011;55906;52.278;6.808;2023-07-09T00:57:59;6.80;;;3.97;;
68870;SDS011;55906;52.278;6.808;2023-07-09T01:00:30;6.13;;;4.05;;
68870;SDS011;55906;52.278;6.808;2023-07-09T01:03:08;6.40;;;4.32;;
68870;SDS011;55906;52.278;6.808;2023-07-09T01:05:38;6.40;;;4.40;;
68870;SDS011;55906;52.278;6.808;2023-07-09T01:08:06;7.22;;;4.85;;
68870;SDS011;55906;52.278;6.808;2023-07-09T01:10:34;7.53;;;4.68;;
68870;SDS011;55906;52.278;6.808;2023-07-09T01:13:01;7.65;;;5.38;;
68870;SDS011;55906;52.278;6.808;2023-07-09T01:15:28;7.43;;;5.00;;
68870;SDS011;55906;52.278;6.808;2023-07-09T01:17:55;7.15;;;5.47;;
68870;SDS011;55906;52.278;6.808;2023-07-09T01:20:21;7.75;;;5.10;;
68870;SDS011;55906;52.278;6.808;2023-07-09T01:22:50;6.20;;;4.53;;
68870;SDS011;55906;52.278;6.808;2023-07-09T01:25:19;6.50;;;4.60;;
68870;SDS011;55906;52.278;6.808;2023-07-09T01:27:46;6.22;;;4.28;;
68870;SDS011;55906;52.278;6.808;2023-07-09T01:30:15;6.40;;;4.57;;
68870;SDS011;55906;52.278;6.808;2023-07-09T01:32:47;8.55;;;4.57;;
68870;SDS011;55906;52.278;6.808;2023-07-09T01:35:15;6.40;;;4.20;;
68870;SDS011;55906;52.278;6.808;2023-07-09T01:37:43;6.55;;;4.82;;
68870;SDS011;55906;52.278;6.808;2023-07-09T01:40:13;6.35;;;4.10;;
68870;SDS011;55906;52.278;6.808;2023-07-09T01:42:43;5.75;;;4.05;;
68870;SDS011;55906;52.278;6.808;2023-07-09T01:45:10;7.97;;;4.47;;
68870;SDS011;55906;52.278;6.808;2023-07-09T01:47:36;5.95;;;3.92;;
68870;SDS011;55906;52.278;6.808;2023-07-09T01:50:04;7.05;;;4.88;;
68870;SDS011;55906;52.278;6.808;2023-07-09T01:52:31;7.67;;;4.40;;
68870;SDS011;55906;52.278;6.808;2023-07-09T01:54:59;6.80;;;4.43;;
68870;SDS011;55906;52.278;6.808;2023-07-09T01:57:28;7.70;;;4.63;;
68870;SDS011;55906;52.278;6.808;2023-07-09T02:00:00;6.65;;;4.85;;
68870;SDS011;55906;52.278;6.808;2023-07-09T02:02:30;6.72;;;4.43;;
68870;SDS011;55906;52.278;6.808;2023-07-09T02:04:57;6.53;;;4.55;;
68870;SDS011;55906;52.278;6.808;2023-07-09T02:07:25;6.32;;;4.22;;
68870;SDS011;55906;52.278;6.808;2023-07-09T02:09:52;8.32;;;5.90;;
68870;SDS011;55906;52.278;6.808;2023-07-09T02:12:19;6.70;;;4.75;;
68870;SDS011;55906;52.278;6.808;2023-07-09T02:14:47;8.35;;;5.55;;
68870;SDS011;55906;52.278;6.808;2023-07-09T02:17:14;7.37;;;5.63;;
68870;SDS011;55906;52.278;6.808;2023-07-09T02:19:42;7.63;;;5.20;;
68870;SDS011;55906;52.278;6.808;2023-07-09T02:22:09;7.18;;;4.72;;
68870;SDS011;55906;52.278;6.808;2023-07-09T02:24:37;6.75;;;4.72;;
68870;SDS011;55906;52.278;6.808;2023-07-09T02:27:05;6.95;;;4.70;;
68870;SDS011;55906;52.278;6.808;2023-07-09T02:29:35;8.18;;;4.85;;
68870;SDS011;55906;52.278;6.808;2023-07-09T02:32:04;6.65;;;4.50;;
68870;SDS011;55906;52.278;6.808;2023-07-09T02:34:31;6.03;;;4.43;;
68870;SDS011;55906;52.278;6.808;2023-07-09T02:36:58;6.70;;;4.85;;
68870;SDS011;55906;52.278;6.808;2023-07-09T02:39:25;6.75;;;4.35;;
68870;SDS011;55906;52.278;6.808;2023-07-09T02:41:52;6.10;;;4.33;;
68870;SDS011;55906;52.278;6.808;2023-07-09T02:44:19;6.85;;;4.30;;
68870;SDS011;55906;52.278;6.808;2023-07-09T02:46:46;6.55;;;4.68;;
68870;SDS011;55906;52.278;6.808;2023-07-09T02:49:14;7.82;;;4.97;;
68870;SDS011;55906;52.278;6.808;2023-07-09T02:51:41;6.97;;;4.95;;
68870;SDS011;55906;52.278;6.808;2023-07-09T02:54:08;6.83;;;5.23;;
68870;SDS011;55906;52.278;6.808;2023-07-09T02:56:34;6.18;;;4.35;;
68870;SDS011;55906;52.278;6.808;2023-07-09T02:59:01;6.55;;;4.65;;
68870;SDS011;55906;52.278;6.808;2023-07-09T03:01:28;7.32;;;4.50;;
68870;SDS011;55906;52.278;6.808;2023-07-09T03:03:54;7.05;;;5.28;;
68870;SDS011;55906;52.278;6.808;2023-07-09T03:06:23;6.67;;;4.70;;
68870;SDS011;55906;52.278;6.808;2023-07-09T03:08:50;6.57;;;4.40;;
68870;SDS011;55906;52.278;6.808;2023-07-09T03:11:19;7.47;;;4.95;;
68870;SDS011;55906;52.278;6.808;2023-07-09T03:13:46;6.78;;;4.63;;
68870;SDS011;55906;52.278;6.808;2023-07-09T03:16:14;6.90;;;5.00;;
68870;SDS011;55906;52.278;6.808;2023-07-09T03:18:44;8.00;;;5.57;;
68870;SDS011;55906;52.278;6.808;2023-07-09T03:21:11;7.30;;;4.70;;
68870;SDS011;55906;52.278;6.808;2023-07-09T03:23:38;7.05;;;5.35;;
68870;SDS011;55906;52.278;6.808;2023-07-09T03:26:05;7.15;;;4.82;;
68870;SDS011;55906;52.278;6.808;2023-07-09T03:28:32;6.88;;;4.55;;
68870;SDS011;55906;52.278;6.808;2023-07-09T03:30:58;7.13;;;5.10;;
68870;SDS011;55906;52.278;6.808;2023-07-09T03:33:25;6.95;;;5.25;;
68870;SDS011;55906;52.278;6.808;2023-07-09T03:35:52;9.25;;;5.90;;
68870;SDS011;55906;52.278;6.808;2023-07-09T03:38:19;8.70;;;6.47;;
68870;SDS011;55906;52.278;6.808;2023-07-09T03:40:50;8.27;;;5.95;;
68870;SDS011;55906;52.278;6.808;2023-07-09T03:43:17;7.77;;;5.83;;
68870;SDS011;55906;52.278;6.808;2023-07-09T03:45:45;7.88;;;5.70;;
68870;SDS011;55906;52.278;6.808;2023-07-09T03:48:12;7.43;;;5.70;;
68870;SDS011;55906;52.278;6.808;2023-07-09T03:50:40;7.93;;;6.07;;
68870;SDS011;55906;52.278;6.808;2023-07-09T03:53:07;9.07;;;6.72;;
68870;SDS011;55906;52.278;6.808;2023-07-09T03:55:34;9.20;;;6.57;;
68870;SDS011;55906;52.278;6.808;2023-07-09T03:58:02;11.23;;;7.22;;
68870;SDS011;55906;52.278;6.808;2023-07-09T04:00:29;9.57;;;6.93;;
68870;SDS011;55906;52.278;6.808;2023-07-09T04:02:57;10.05;;;6.22;;
68870;SDS011;55906;52.278;6.808;2023-07-09T04:05:24;8.43;;;6.00;;
68870;SDS011;55906;52.278;6.808;2023-07-09T04:07:51;7.83;;;5.93;;
68870;SDS011;55906;52.278;6.808;2023-07-09T04:10:18;8.98;;;6.10;;
68870;SDS011;55906;52.278;6.808;2023-07-09T04:12:45;7.72;;;5.60;;
68870;SDS011;55906;52.278;6.808;2023-07-09T04:15:13;9.50;;;6.30;;
68870;SDS011;55906;52.278;6.808;2023-07-09T04:17:40;8.13;;;5.15;;
68870;SDS011;55906;52.278;6.808;2023-07-09T04:20:08;7.53;;;5.00;;
68870;SDS011;55906;52.278;6.808;2023-07-09T04:22:36;8.65;;;6.13;;
68870;SDS011;55906;52.278;6.808;2023-07-09T04:25:03;8.52;;;6.13;;
68870;SDS011;55906;52.278;6.808;2023-07-09T04:27:32;9.70;;;5.75;;
68870;SDS011;55906;52.278;6.808;2023-07-09T04:29:59;8.93;;;5.65;;
68870;SDS011;55906;52.278;6.808;2023-07-09T04:32:27;8.55;;;5.93;;
68870;SDS011;55906;52.278;6.808;2023-07-09T04:34:53;8.15;;;5.65;;
68870;SDS011;55906;52.278;6.808;2023-07-09T04:37:20;11.23;;;6.22;;
68870;SDS011;55906;52.278;6.808;2023-07-09T04:39:47;7.63;;;5.88;;
68870;SDS011;55906;52.278;6.808;2023-07-09T04:42:15;9.02;;;6.13;;
68870;SDS011;55906;52.278;6.808;2023-07-09T04:44:43;10.00;;;6.57;;
68870;SDS011;55906;52.278;6.808;2023-07-09T04:47:10;7.22;;;5.43;;
68870;SDS011;55906;52.278;6.808;2023-07-09T04:49:38;9.13;;;6.38;;
68870;SDS011;55906;52.278;6.808;2023-07-09T04:52:06;7.45;;;5.80;;
68870;SDS011;55906;52.278;6.808;2023-07-09T04:54:36;7.32;;;5.47;;
68870;SDS011;55906;52.278;6.808;2023-07-09T04:57:03;9.98;;;6.43;;
68870;SDS011;55906;52.278;6.808;2023-07-09T04:59:31;8.05;;;5.32;;
68870;SDS011;55906;52.278;6.808;2023-07-09T05:01:57;8.80;;;6.03;;
68870;SDS011;55906;52.278;6.808;2023-07-09T05:04:24;8.48;;;5.97;;
68870;SDS011;55906;52.278;6.808;2023-07-09T05:06:52;8.55;;;6.65;;
68870;SDS011;55906;52.278;6.808;2023-07-09T05:09:19;11.48;;;6.97;;
68870;SDS011;55906;52.278;6.808;2023-07-09T05:11:46;9.82;;;6.45;;
68870;SDS011;55906;52.278;6.808;2023-07-09T05:14:12;10.32;;;7.40;;
68870;SDS011;55906;52.278;6.808;2023-07-09T05:16:39;10.65;;;7.57;;
68870;SDS011;55906;52.278;6.808;2023-07-09T05:19:06;11.00;;;6.88;;
68870;SDS011;55906;52.278;6.808;2023-07-09T05:21:34;9.15;;;7.25;;
68870;SDS011;55906;52.278;6.808;2023-07-09T05:24:02;9.63;;;6.90;;
68870;SDS011;55906;52.278;6.808;2023-07-09T05:26:29;12.05;;;8.07;;
68870;SDS011;55906;52.278;6.808;2023-07-09T05:28:56;10.95;;;6.68;;
68870;SDS011;55906;52.278;6.808;2023-07-09T05:31:24;11.18;;;7.07;;
68870;SDS011;55906;52.278;6.808;2023-07-09T05:33:50;12.07;;;7.55;;
68870;SDS011;55906;52.278;6.808;2023-07-09T05:36:17;10.93;;;7.15;;
68870;SDS011;55906;52.278;6.808;2023-07-09T05:38:45;10.75;;;7.18;;
68870;SDS011;55906;52.278;6.808;2023-07-09T05:41:13;9.73;;;6.57;;
68870;SDS011;55906;52.278;6.808;2023-07-09T05:43:41;8.85;;;6.25;;
68870;SDS011;55906;52.278;6.808;2023-07-09T05:46:08;9.45;;;6.60;;
68870;SDS011;55906;52.278;6.808;2023-07-09T05:48:35;10.13;;;7.03;;
68870;SDS011;55906;52.278;6.808;2023-07-09T05:51:01;10.05;;;7.20;;
68870;SDS011;55906;52.278;6.808;2023-07-09T05:53:29;11.27;;;7.60;;
68870;SDS011;55906;52.278;6.808;2023-07-09T05:55:57;10.50;;;7.20;;
68870;SDS011;55906;52.278;6.808;2023-07-09T05:58:25;11.13;;;6.70;;
68870;SDS011;55906;52.278;6.808;2023-07-09T06:00:52;12.32;;;8.10;;
68870;SDS011;55906;52.278;6.808;2023-07-09T06:03:22;11.55;;;7.60;;
68870;SDS011;55906;52.278;6.808;2023-07-09T06:05:49;11.52;;;7.10;;
68870;SDS011;55906;52.278;6.808;2023-07-09T06:08:17;12.40;;;8.00;;
68870;SDS011;55906;52.278;6.808;2023-07-09T06:10:50;11.07;;;6.38;;
68870;SDS011;55906;52.278;6.808;2023-07-09T06:13:17;9.73;;;6.55;;
68870;SDS011;55906;52.278;6.808;2023-07-09T06:15:46;9.85;;;6.65;;
68870;SDS011;55906;52.278;6.808;2023-07-09T06:18:13;11.27;;;7.50;;
68870;SDS011;55906;52.278;6.808;2023-07-09T06:20:39;12.40;;;7.80;;
68870;SDS011;55906;52.278;6.808;2023-07-09T06:23:06;11.48;;;7.00;;
68870;SDS011;55906;52.278;6.808;2023-07-09T06:25:33;11.73;;;7.72;;
68870;SDS011;55906;52.278;6.808;2023-07-09T06:27:59;10.50;;;6.47;;
68870;SDS011;55906;52.278;6.808;2023-07-09T06:30:26;10.75;;;7.05;;
68870;SDS011;55906;52.278;6.808;2023-07-09T06:32:54;10.25;;;6.80;;
68870;SDS011;55906;52.278;6.808;2023-07-09T06:35:21;11.65;;;7.30;;
68870;SDS011;55906;52.278;6.808;2023-07-09T06:37:47;12.73;;;7.40;;
68870;SDS011;55906;52.278;6.808;2023-07-09T06:40:14;12.27;;;7.05;;
68870;SDS011;55906;52.278;6.808;2023-07-09T06:42:41;11.50;;;7.30;;
68870;SDS011;55906;52.278;6.808;2023-07-09T06:45:07;13.45;;;7.72;;
68870;SDS011;55906;52.278;6.808;2023-07-09T06:47:35;10.02;;;6.68;;
68870;SDS011;55906;52.278;6.808;2023-07-09T06:50:03;12.35;;;7.38;;
68870;SDS011;55906;52.278;6.808;2023-07-09T06:52:30;11.82;;;7.45;;
68870;SDS011;55906;52.278;6.808;2023-07-09T06:54:56;10.10;;;6.90;;
68870;SDS011;55906;52.278;6.808;2023-07-09T06:57:23;11.40;;;7.38;;
68870;SDS011;55906;52.278;6.808;2023-07-09T06:59:50;11.43;;;7.72;;
68870;SDS011;55906;52.278;6.808;2023-07-09T07:02:16;9.70;;;6.75;;
68870;SDS011;55906;52.278;6.808;2023-07-09T07:04:43;11.50;;;7.82;;
68870;SDS011;55906;52.278;6.808;2023-07-09T07:07:11;11.70;;;6.93;;
68870;SDS011;55906;52.278;6.808;2023-07-09T07:09:38;11.82;;;7.38;;
68870;SDS011;55906;52.278;6.808;2023-07-09T07:12:05;12.48;;;7.72;;
68870;SDS011;55906;52.278;6.808;2023-07-09T07:14:32;11.55;;;7.57;;
68870;SDS011;55906;52.278;6.808;2023-07-09T07:16:58;11.35;;;7.28;;
68870;SDS011;55906;52.278;6.808;2023-07-09T07:19:26;11.52;;;7.72;;
68870;SDS011;55906;52.278;6.808;2023-07-09T07:21:53;11.45;;;7.53;;
68870;SDS011;55906;52.278;6.808;2023-07-09T07:24:21;13.55;;;7.65;;
68870;SDS011;55906;52.278;6.808;2023-07-09T07:26:47;10.73;;;6.57;;
68870;SDS011;55906;52.278;6.808;2023-07-09T07:29:14;13.20;;;7.53;;
68870;SDS011;55906;52.278;6.808;2023-07-09T07:31:40;10.27;;;6.65;;
68870;SDS011;55906;52.278;6.808;2023-07-09T07:34:07;10.90;;;6.60;;
68870;SDS011;55906;52.278;6.808;2023-07-09T07:36:34;9.70;;;6.13;;
68870;SDS011;55906;52.278;6.808;2023-07-09T07:39:00;11.07;;;6.45;;
68870;SDS011;55906;52.278;6.808;2023-07-09T07:41:28;12.70;;;7.50;;
68870;SDS011;55906;52.278;6.808;2023-07-09T07:43:55;14.23;;;6.70;;
68870;SDS011;55906;52.278;6.808;2023-07-09T07:46:21;11.40;;;7.25;;
68870;SDS011;55906;52.278;6.808;2023-07-09T07:48:48;10.65;;;6.57;;
68870;SDS011;55906;52.278;6.808;2023-07-09T07:51:15;13.27;;;7.55;;
68870;SDS011;55906;52.278;6.808;2023-07-09T07:53:42;10.57;;;7.25;;
68870;SDS011;55906;52.278;6.808;2023-07-09T07:56:08;11.70;;;7.45;;
68870;SDS011;55906;52.278;6.808;2023-07-09T07:58:36;12.50;;;7.65;;
68870;SDS011;55906;52.278;6.808;2023-07-09T08:01:03;10.85;;;7.20;;
68870;SDS011;55906;52.278;6.808;2023-07-09T08:03:29;10.13;;;6.50;;
68870;SDS011;55906;52.278;6.808;2023-07-09T08:05:56;16.17;;;7.13;;
68870;SDS011;55906;52.278;6.808;2023-07-09T08:08:23;11.35;;;7.00;;
68870;SDS011;55906;52.278;6.808;2023-07-09T08:10:50;10.55;;;6.88;;
68870;SDS011;55906;52.278;6.808;2023-07-09T08:13:16;9.98;;;6.72;;
68870;SDS011;55906;52.278;6.808;2023-07-09T08:15:45;10.93;;;6.47;;
68870;SDS011;55906;52.278;6.808;2023-07-09T08:18:12;10.57;;;6.47;;
68870;SDS011;55906;52.278;6.808;2023-07-09T08:20:42;12.55;;;6.22;;
68870;SDS011;55906;52.278;6.808;2023-07-09T08:23:09;13.25;;;6.50;;
68870;SDS011;55906;52.278;6.808;2023-07-09T08:25:36;18.08;;;7.93;;
68870;SDS011;55906;52.278;6.808;2023-07-09T08:28:02;10.13;;;7.40;;
68870;SDS011;55906;52.278;6.808;2023-07-09T08:30:29;10.02;;;6.35;;
68870;SDS011;55906;52.278;6.808;2023-07-09T08:32:57;10.68;;;6.65;;
68870;SDS011;55906;52.278;6.808;2023-07-09T08:35:24;10.35;;;6.53;;
68870;SDS011;55906;52.278;6.808;2023-07-09T08:37:50;9.57;;;5.68;;
68870;SDS011;55906;52.278;6.808;2023-07-09T08:40:17;11.93;;;7.03;;
68870;SDS011;55906;52.278;6.808;2023-07-09T08:42:45;10.90;;;6.90;;
68870;SDS011;55906;52.278;6.808;2023-07-09T08:45:16;10.18;;;6.57;;
68870;SDS011;55906;52.278;6.808;2023-07-09T08:47:57;13.65;;;6.90;;
68870;SDS011;55906;52.278;6.808;2023-07-09T08:50:31;12.18;;;7.32;;
68870;SDS011;55906;52.278;6.808;2023-07-09T08:53:02;11.30;;;7.17;;
68870;SDS011;55906;52.278;6.808;2023-07-09T08:55:31;10.68;;;7.28;;
68870;SDS011;55906;52.278;6.808;2023-07-09T08:58:09;10.82;;;7.10;;
68870;SDS011;55906;52.278;6.808;2023-07-09T09:00:40;12.35;;;7.18;;
68870;SDS011;55906;52.278;6.808;2023-07-09T09:03:14;15.25;;;8.05;;
68870;SDS011;55906;52.278;6.808;2023-07-09T09:05:43;12.70;;;7.57;;
68870;SDS011;55906;52.278;6.808;2023-07-09T09:08:15;11.32;;;6.72;;
68870;SDS011;55906;52.278;6.808;2023-07-09T09:10:55;10.70;;;6.78;;
68870;SDS011;55906;52.278;6.808;2023-07-09T09:13:31;14.27;;;7.32;;
68870;SDS011;55906;52.278;6.808;2023-07-09T09:16:00;13.40;;;7.38;;
68870;SDS011;55906;52.278;6.808;2023-07-09T09:18:34;10.50;;;6.77;;
68870;SDS011;55906;52.278;6.808;2023-07-09T09:21:09;10.63;;;6.80;;
68870;SDS011;55906;52.278;6.808;2023-07-09T09:23:54;12.75;;;6.55;;
68870;SDS011;55906;52.278;6.808;2023-07-09T09:26:27;11.43;;;6.03;;
68870;SDS011;55906;52.278;6.808;2023-07-09T09:28:58;11.85;;;6.65;;
68870;SDS011;55906;52.278;6.808;2023-07-09T09:31:25;8.10;;;5.43;;
68870;SDS011;55906;52.278;6.808;2023-07-09T09:33:55;9.35;;;5.75;;
68870;SDS011;55906;52.278;6.808;2023-07-09T09:36:24;9.75;;;5.68;;
68870;SDS011;55906;52.278;6.808;2023-07-09T09:38:52;8.55;;;5.18;;
68870;SDS011;55906;52.278;6.808;2023-07-09T09:41:20;8.88;;;5.30;;
68870;SDS011;55906;52.278;6.808;2023-07-09T09:43:50;10.60;;;4.90;;
68870;SDS011;55906;52.278;6.808;2023-07-09T09:46:20;7.45;;;4.43;;
68870;SDS011;55906;52.278;6.808;2023-07-09T09:48:48;7.20;;;4.20;;
68870;SDS011;55906;52.278;6.808;2023-07-09T09:51:17;10.90;;;4.85;;
68870;SDS011;55906;52.278;6.808;2023-07-09T09:53:46;8.50;;;4.53;;
68870;SDS011;55906;52.278;6.808;2023-07-09T09:56:17;10.43;;;4.10;;
68870;SDS011;55906;52.278;6.808;2023-07-09T09:58:46;7.70;;;4.00;;
68870;SDS011;55906;52.278;6.808;2023-07-09T10:01:13;8.60;;;3.83;;
68870;SDS011;55906;52.278;6.808;2023-07-09T10:03:41;8.18;;;4.32;;
68870;SDS011;55906;52.278;6.808;2023-07-09T10:06:12;7.95;;;4.30;;
68870;SDS011;55906;52.278;6.808;2023-07-09T10:08:46;7.73;;;3.97;;
68870;SDS011;55906;52.278;6.808;2023-07-09T10:11:23;7.32;;;3.60;;
68870;SDS011;55906;52.278;6.808;2023-07-09T10:13:58;8.50;;;3.85;;
68870;SDS011;55906;52.278;6.808;2023-07-09T10:16:29;7.72;;;4.05;;
68870;SDS011;55906;52.278;6.808;2023-07-09T10:19:03;8.40;;;4.20;;
68870;SDS011;55906;52.278;6.808;2023-07-09T10:21:40;8.27;;;4.10;;
68870;SDS011;55906;52.278;6.808;2023-07-09T10:24:21;6.45;;;3.15;;
68870;SDS011;55906;52.278;6.808;2023-07-09T10:27:01;6.20;;;3.25;;
68870;SDS011;55906;52.278;6.808;2023-07-09T10:32:38;9.35;;;4.32;;
68870;SDS011;55906;52.278;6.808;2023-07-09T10:35:15;6.83;;;3.87;;
68870;SDS011;55906;52.278;6.808;2023-07-09T10:37:58;8.48;;;3.70;;
68870;SDS011;55906;52.278;6.808;2023-07-09T10:40:41;6.90;;;3.38;;
68870;SDS011;55906;52.278;6.808;2023-07-09T10:43:15;7.35;;;3.10;;
68870;SDS011;55906;52.278;6.808;2023-07-09T10:45:46;6.40;;;3.15;;
68870;SDS011;55906;52.278;6.808;2023-07-09T10:48:17;5.73;;;3.00;;
68870;SDS011;55906;52.278;6.808;2023-07-09T10:50:52;6.75;;;3.47;;
68870;SDS011;55906;52.278;6.808;2023-07-09T10:53:24;5.90;;;3.30;;
68870;SDS011;55906;52.278;6.808;2023-07-09T10:55:59;7.93;;;3.10;;
68870;SDS011;55906;52.278;6.808;2023-07-09T10:58:30;6.25;;;3.08;;
68870;SDS011;55906;52.278;6.808;2023-07-09T11:01:01;5.27;;;2.90;;
68870;SDS011;55906;52.278;6.808;2023-07-09T11:03:33;7.35;;;3.10;;
68870;SDS011;55906;52.278;6.808;2023-07-09T11:06:04;5.53;;;2.80;;
68870;SDS011;55906;52.278;6.808;2023-07-09T11:08:38;10.77;;;3.58;;
68870;SDS011;55906;52.278;6.808;2023-07-09T11:11:09;10.85;;;3.53;;
68870;SDS011;55906;52.278;6.808;2023-07-09T11:13:50;7.47;;;3.00;;
68870;SDS011;55906;52.278;6.808;2023-07-09T11:16:24;5.80;;;2.90;;
68870;SDS011;55906;52.278;6.808;2023-07-09T11:18:54;6.28;;;3.00;;
68870;SDS011;55906;52.278;6.808;2023-07-09T11:21:24;6.55;;;3.08;;
68870;SDS011;55906;52.278;6.808;2023-07-09T11:23:52;5.82;;;2.90;;
68870;SDS011;55906;52.278;6.808;2023-07-09T11:26:25;6.13;;;3.17;;
68870;SDS011;55906;52.278;6.808;2023-07-09T11:28:54;8.23;;;3.10;;
68870;SDS011;55906;52.278;6.808;2023-07-09T11:31:34;6.50;;;3.43;;
68870;SDS011;55906;52.278;6.808;2023-07-09T11:34:07;7.40;;;3.45;;
68870;SDS011;55906;52.278;6.808;2023-07-09T11:36:45;8.23;;;3.20;;
68870;SDS011;55906;52.278;6.808;2023-07-09T11:39:17;6.63;;;3.03;;
68870;SDS011;55906;52.278;6.808;2023-07-09T11:41:48;6.15;;;2.75;;
68870;SDS011;55906;52.278;6.808;2023-07-09T11:44:16;6.40;;;2.70;;
68870;SDS011;55906;52.278;6.808;2023-07-09T11:46:50;6.75;;;2.70;;
68870;SDS011;55906;52.278;6.808;2023-07-09T11:49:22;6.32;;;3.10;;
68870;SDS011;55906;52.278;6.808;2023-07-09T11:51:52;7.60;;;2.70;;
68870;SDS011;55906;52.278;6.808;2023-07-09T11:54:21;7.22;;;2.55;;
68870;SDS011;55906;52.278;6.808;2023-07-09T11:56:56;4.47;;;2.00;;
68870;SDS011;55906;52.278;6.808;2023-07-09T11:59:24;6.00;;;2.40;;
68870;SDS011;55906;52.278;6.808;2023-07-09T12:01:51;5.40;;;2.58;;
68870;SDS011;55906;52.278;6.808;2023-07-09T12:04:21;5.55;;;2.60;;
68870;SDS011;55906;52.278;6.808;2023-07-09T12:06:49;5.47;;;2.70;;
68870;SDS011;55906;52.278;6.808;2023-07-09T12:09:23;7.50;;;2.93;;
68870;SDS011;55906;52.278;6.808;2023-07-09T12:11:50;7.00;;;2.47;;
68870;SDS011;55906;52.278;6.808;2023-07-09T12:14:19;6.25;;;2.42;;
68870;SDS011;55906;52.278;6.808;2023-07-09T12:16:48;5.32;;;2.33;;
68870;SDS011;55906;52.278;6.808;2023-07-09T12:19:16;4.75;;;2.28;;
68870;SDS011;55906;52.278;6.808;2023-07-09T12:21:45;6.93;;;2.70;;
68870;SDS011;55906;52.278;6.808;2023-07-09T12:24:16;8.10;;;2.72;;
68870;SDS011;55906;52.278;6.808;2023-07-09T12:26:47;5.22;;;2.42;;
68870;SDS011;55906;52.278;6.808;2023-07-09T12:29:14;7.10;;;2.90;;
68870;SDS011;55906;52.278;6.808;2023-07-09T12:31:42;6.05;;;2.30;;
68870;SDS011;55906;52.278;6.808;2023-07-09T12:34:10;5.13;;;2.30;;
68870;SDS011;55906;52.278;6.808;2023-07-09T12:36:41;10.45;;;2.78;;
68870;SDS011;55906;52.278;6.808;2023-07-09T12:39:12;6.18;;;2.70;;
68870;SDS011;55906;52.278;6.808;2023-07-09T12:41:41;8.00;;;2.97;;
68870;SDS011;55906;52.278;6.808;2023-07-09T12:44:13;6.97;;;2.70;;
68870;SDS011;55906;52.278;6.808;2023-07-09T12:46:44;6.83;;;3.03;;
68870;SDS011;55906;52.278;6.808;2023-07-09T12:49:18;6.90;;;3.10;;
68870;SDS011;55906;52.278;6.808;2023-07-09T12:51:48;8.88;;;3.00;;
68870;SDS011;55906;52.278;6.808;2023-07-09T12:54:15;7.47;;;2.92;;
68870;SDS011;55906;52.278;6.808;2023-07-09T12:56:44;6.80;;;2.50;;
68870;SDS011;55906;52.278;6.808;2023-07-09T12:59:18;9.10;;;3.10;;
68870;SDS011;55906;52.278;6.808;2023-07-09T13:01:49;6.22;;;3.10;;
68870;SDS011;55906;52.278;6.808;2023-07-09T13:04:17;7.65;;;3.10;;
68870;SDS011;55906;52.278;6.808;2023-07-09T13:06:46;5.68;;;2.72;;
68870;SDS011;55906;52.278;6.808;2023-07-09T13:09:16;6.50;;;3.10;;
68870;SDS011;55906;52.278;6.808;2023-07-09T13:11:47;6.63;;;3.07;;
68870;SDS011;55906;52.278;6.808;2023-07-09T13:14:19;6.22;;;2.83;;
68870;SDS011;55906;52.278;6.808;2023-07-09T13:16:48;9.73;;;3.10;;
68870;SDS011;55906;52.278;6.808;2023-07-09T13:19:15;5.90;;;2.78;;
68870;SDS011;55906;52.278;6.808;2023-07-09T13:21:42;6.53;;;3.25;;
68870;SDS011;55906;52.278;6.808;2023-07-09T13:24:13;8.07;;;2.90;;
68870;SDS011;55906;52.278;6.808;2023-07-09T13:26:42;6.80;;;3.10;;
68870;SDS011;55906;52.278;6.808;2023-07-09T13:29:13;6.20;;;3.20;;
68870;SDS011;55906;52.278;6.808;2023-07-09T13:31:40;9.57;;;3.72;;
68870;SDS011;55906;52.278;6.808;2023-07-09T13:34:13;7.85;;;3.03;;
68870;SDS011;55906;52.278;6.808;2023-07-09T13:36:44;7.87;;;3.10;;
68870;SDS011;55906;52.278;6.808;2023-07-09T13:39:11;7.13;;;3.42;;
68870;SDS011;55906;52.278;6.808;2023-07-09T13:41:39;8.13;;;3.40;;
68870;SDS011;55906;52.278;6.808;2023-07-09T13:44:08;6.38;;;3.17;;
68870;SDS011;55906;52.278;6.808;2023-07-09T13:46:38;6.65;;;3.47;;
68870;SDS011;55906;52.278;6.808;2023-07-09T13:49:04;7.80;;;3.37;;
68870;SDS011;55906;52.278;6.808;2023-07-09T13:51:35;6.68;;;3.20;;
68870;SDS011;55906;52.278;6.808;2023-07-09T13:54:05;5.78;;;3.28;;
68870;SDS011;55906;52.278;6.808;2023-07-09T13:56:39;5.35;;;3.03;;
68870;SDS011;55906;52.278;6.808;2023-07-09T13:59:10;6.53;;;3.30;;
68870;SDS011;55906;52.278;6.808;2023-07-09T14:01:39;6.23;;;2.77;;
68870;SDS011;55906;52.278;6.808;2023-07-09T14:04:08;6.18;;;2.80;;
68870;SDS011;55906;52.278;6.808;2023-07-09T14:06:38;6.03;;;2.90;;
68870;SDS011;55906;52.278;6.808;2023-07-09T14:09:05;7.25;;;3.13;;
68870;SDS011;55906;52.278;6.808;2023-07-09T14:11:32;6.07;;;3.30;;
68870;SDS011;55906;52.278;6.808;2023-07-09T14:13:59;6.40;;;2.97;;
68870;SDS011;55906;52.278;6.808;2023-07-09T14:16:26;5.28;;;3.17;;
68870;SDS011;55906;52.278;6.808;2023-07-09T14:18:53;7.47;;;3.63;;
68870;SDS011;55906;52.278;6.808;2023-07-09T14:21:20;6.90;;;3.30;;
68870;SDS011;55906;52.278;6.808;2023-07-09T14:23:52;6.60;;;3.20;;
68870;SDS011;55906;52.278;6.808;2023-07-09T14:26:19;7.80;;;3.20;;
68870;SDS011;55906;52.278;6.808;2023-07-09T14:28:45;6.07;;;3.28;;
68870;SDS011;55906;52.278;6.808;2023-07-09T14:31:17;6.78;;;3.20;;
68870;SDS011;55906;52.278;6.808;2023-07-09T14:33:48;6.28;;;3.47;;
68870;SDS011;55906;52.278;6.808;2023-07-09T14:36:14;5.90;;;3.30;;
68870;SDS011;55906;52.278;6.808;2023-07-09T14:38:41;6.13;;;3.20;;
68870;SDS011;55906;52.278;6.808;2023-07-09T14:41:18;5.93;;;3.03;;
68870;SDS011;55906;52.278;6.808;2023-07-09T14:43:47;5.05;;;2.78;;
68870;SDS011;55906;52.278;6.808;2023-07-09T14:46:14;4.95;;;2.78;;
68870;SDS011;55906;52.278;6.808;2023-07-09T14:48:41;4.80;;;2.60;;
68870;SDS011;55906;52.278;6.808;2023-07-09T14:51:11;5.37;;;2.60;;
68870;SDS011;55906;52.278;6.808;2023-07-09T14:53:39;5.03;;;2.40;;
68870;SDS011;55906;52.278;6.808;2023-07-09T14:56:06;5.55;;;2.67;;
68870;SDS011;55906;52.278;6.808;2023-07-09T14:58:34;6.60;;;3.80;;